KOMK/OMK METAR and TAF weather

Enter ICAO airport designator
Station Type Date Time Source
KOMK METAR 2020/09/19 21:53 UTC NOAA

KOMK 192153Z AUTO 14004KT 10SM BKN110 25/08 A2989 RMK AO2 SLP117 T02500083


Station Type Date Time Source
KOMK Decoded METAR 2020/09/19 21:53 UTC NOAA

OMAK AIRPORT, WA, United States (KOMK) 48-28N 119-31W 395M
Sep 19, 2020 - 05:53 PM EDT / 2020.09.19 2153 UTC
Wind: from the SE (140 degrees) at 5 MPH (4 KT):0
Visibility: 10 mile(s):0
Sky conditions: mostly cloudy
Temperature: 77.0 F (25.0 C)
Dew Point: 46.9 F (8.3 C)
Relative Humidity: 34%
Pressure (altimeter): 29.89 in. Hg (1012 hPa)
ob: KOMK 192153Z AUTO 14004KT 10SM BKN110 25/08 A2989 RMK AO2 SLP117 T02500083
cycle: 22

Station Type Date Time Source
KOMK TAF UTC NOAA

Error!

Example: see airport list